sensor_id;sensor_type;location;lat;lon;timestamp;temperature;humidity
2647;DHT22;1333;50.958;6.770;2023-05-23T00:02:21;15.80;99.90
2647;DHT22;1333;50.958;6.770;2023-05-23T00:04:47;15.80;99.90
2647;DHT22;1333;50.958;6.770;2023-05-23T00:07:12;15.80;99.90
2647;DHT22;1333;50.958;6.770;2023-05-23T00:09:38;15.70;99.90
2647;DHT22;1333;50.958;6.770;2023-05-23T00:12:03;15.70;99.90
2647;DHT22;1333;50.958;6.770;2023-05-23T00:14:29;15.60;99.90
2647;DHT22;1333;50.958;6.770;2023-05-23T00:16:58;15.60;99.90
2647;DHT22;1333;50.958;6.770;2023-05-23T00:19:24;15.60;99.90
2647;DHT22;1333;50.958;6.770;2023-05-23T00:21:50;15.60;99.90
2647;DHT22;1333;50.958;6.770;2023-05-23T00:24:18;15.50;99.90
2647;DHT22;1333;50.958;6.770;2023-05-23T00:26:45;15.50;99.90
2647;DHT22;1333;50.958;6.770;2023-05-23T00:29:11;15.50;99.90
2647;DHT22;1333;50.958;6.770;2023-05-23T00:31:44;15.40;99.90
2647;DHT22;1333;50.958;6.770;2023-05-23T00:34:11;15.40;99.90
2647;DHT22;1333;50.958;6.770;2023-05-23T00:36:37;15.30;99.90
2647;DHT22;1333;50.958;6.770;2023-05-23T00:39:03;15.30;99.90
2647;DHT22;1333;50.958;6.770;2023-05-23T00:41:29;15.30;99.90
2647;DHT22;1333;50.958;6.770;2023-05-23T00:43:56;15.30;99.90
2647;DHT22;1333;50.958;6.770;2023-05-23T00:46:25;15.30;99.90
2647;DHT22;1333;50.958;6.770;2023-05-23T00:48:50;15.30;99.90
2647;DHT22;1333;50.958;6.770;2023-05-23T00:51:17;15.30;99.90
2647;DHT22;1333;50.958;6.770;2023-05-23T00:53:43;15.30;99.90
2647;DHT22;1333;50.958;6.770;2023-05-23T00:56:09;15.40;99.90
2647;DHT22;1333;50.958;6.770;2023-05-23T00:58:34;15.50;99.90
2647;DHT22;1333;50.958;6.770;2023-05-23T01:01:00;15.60;99.90
2647;DHT22;1333;50.958;6.770;2023-05-23T01:03:26;15.70;99.90
2647;DHT22;1333;50.958;6.770;2023-05-23T01:05:53;15.90;99.90
2647;DHT22;1333;50.958;6.770;2023-05-23T01:08:20;16.00;99.90
2647;DHT22;1333;50.958;6.770;2023-05-23T01:10:46;16.10;99.90
2647;DHT22;1333;50.958;6.770;2023-05-23T01:18:39;16.40;99.90
2647;DHT22;1333;50.958;6.770;2023-05-23T01:21:15;16.50;99.90
2647;DHT22;1333;50.958;6.770;2023-05-23T01:29:10;16.60;99.90
2647;DHT22;1333;50.958;6.770;2023-05-23T01:31:42;16.70;99.90
2647;DHT22;1333;50.958;6.770;2023-05-23T01:34:09;16.70;99.90
2647;DHT22;1333;50.958;6.770;2023-05-23T01:36:42;16.80;99.90
2647;DHT22;1333;50.958;6.770;2023-05-23T01:39:08;16.80;99.90
2647;DHT22;1333;50.958;6.770;2023-05-23T01:41:35;16.90;99.90
2647;DHT22;1333;50.958;6.770;2023-05-23T01:44:01;16.90;99.90
2647;DHT22;1333;50.958;6.770;2023-05-23T01:46:27;16.90;99.90
2647;DHT22;1333;50.958;6.770;2023-05-23T01:48:54;16.90;99.90
2647;DHT22;1333;50.958;6.770;2023-05-23T01:51:21;16.90;99.90
2647;DHT22;1333;50.958;6.770;2023-05-23T01:53:49;16.90;99.90
2647;DHT22;1333;50.958;6.770;2023-05-23T01:56:15;16.80;99.90
2647;DHT22;1333;50.958;6.770;2023-05-23T01:58:41;16.80;99.90
2647;DHT22;1333;50.958;6.770;2023-05-23T02:01:08;16.80;99.90
2647;DHT22;1333;50.958;6.770;2023-05-23T02:03:34;16.80;99.90
2647;DHT22;1333;50.958;6.770;2023-05-23T02:06:00;16.70;99.90
2647;DHT22;1333;50.958;6.770;2023-05-23T02:08:25;16.80;99.90
2647;DHT22;1333;50.958;6.770;2023-05-23T02:10:51;16.70;99.90
2647;DHT22;1333;50.958;6.770;2023-05-23T02:13:16;16.70;99.90
2647;DHT22;1333;50.958;6.770;2023-05-23T02:15:42;16.70;99.90
2647;DHT22;1333;50.958;6.770;2023-05-23T02:18:07;16.70;99.90
2647;DHT22;1333;50.958;6.770;2023-05-23T02:20:33;16.70;99.90
2647;DHT22;1333;50.958;6.770;2023-05-23T02:22:58;16.70;99.90
2647;DHT22;1333;50.958;6.770;2023-05-23T02:25:24;16.70;99.90
2647;DHT22;1333;50.958;6.770;2023-05-23T02:27:49;16.70;99.90
2647;DHT22;1333;50.958;6.770;2023-05-23T02:30:15;16.70;99.90
2647;DHT22;1333;50.958;6.770;2023-05-23T02:32:40;16.70;99.90
2647;DHT22;1333;50.958;6.770;2023-05-23T02:35:06;16.70;99.90
2647;DHT22;1333;50.958;6.770;2023-05-23T02:37:32;16.70;99.90
2647;DHT22;1333;50.958;6.770;2023-05-23T02:39:58;16.70;99.90
2647;DHT22;1333;50.958;6.770;2023-05-23T02:42:23;16.70;99.90
2647;DHT22;1333;50.958;6.770;2023-05-23T02:44:48;16.70;99.90
2647;DHT22;1333;50.958;6.770;2023-05-23T02:47:14;16.70;99.90
2647;DHT22;1333;50.958;6.770;2023-05-23T02:49:40;16.60;99.90
2647;DHT22;1333;50.958;6.770;2023-05-23T02:52:05;16.60;99.90
2647;DHT22;1333;50.958;6.770;2023-05-23T02:54:31;16.60;99.90
2647;DHT22;1333;50.958;6.770;2023-05-23T02:56:56;16.60;99.90
2647;DHT22;1333;50.958;6.770;2023-05-23T02:59:22;16.60;99.90
2647;DHT22;1333;50.958;6.770;2023-05-23T03:01:48;16.60;99.90
2647;DHT22;1333;50.958;6.770;2023-05-23T03:04:13;16.50;99.90
2647;DHT22;1333;50.958;6.770;2023-05-23T03:06:39;16.50;99.90
2647;DHT22;1333;50.958;6.770;2023-05-23T03:09:07;16.50;99.90
2647;DHT22;1333;50.958;6.770;2023-05-23T03:11:33;16.50;99.90
2647;DHT22;1333;50.958;6.770;2023-05-23T03:13:58;16.50;99.90
2647;DHT22;1333;50.958;6.770;2023-05-23T03:16:24;16.50;99.90
2647;DHT22;1333;50.958;6.770;2023-05-23T03:18:49;16.50;99.90
2647;DHT22;1333;50.958;6.770;2023-05-23T03:21:15;16.50;99.90
2647;DHT22;1333;50.958;6.770;2023-05-23T03:23:40;16.50;99.90
2647;DHT22;1333;50.958;6.770;2023-05-23T03:26:06;16.50;99.90
2647;DHT22;1333;50.958;6.770;2023-05-23T03:28:31;16.50;99.90
2647;DHT22;1333;50.958;6.770;2023-05-23T03:30:57;16.50;99.90
2647;DHT22;1333;50.958;6.770;2023-05-23T03:33:23;16.50;99.90
2647;DHT22;1333;50.958;6.770;2023-05-23T03:35:49;16.40;99.90
2647;DHT22;1333;50.958;6.770;2023-05-23T03:38:15;16.40;99.90
2647;DHT22;1333;50.958;6.770;2023-05-23T03:40:41;16.30;99.90
2647;DHT22;1333;50.958;6.770;2023-05-23T03:43:07;16.30;99.90
2647;DHT22;1333;50.958;6.770;2023-05-23T03:45:33;16.30;99.90
2647;DHT22;1333;50.958;6.770;2023-05-23T03:47:59;16.20;99.90
2647;DHT22;1333;50.958;6.770;2023-05-23T03:50:25;16.20;99.90
2647;DHT22;1333;50.958;6.770;2023-05-23T03:52:51;16.20;99.90
2647;DHT22;1333;50.958;6.770;2023-05-23T03:55:17;16.20;99.90
2647;DHT22;1333;50.958;6.770;2023-05-23T03:57:50;16.20;99.90
2647;DHT22;1333;50.958;6.770;2023-05-23T04:00:18;16.20;99.90
2647;DHT22;1333;50.958;6.770;2023-05-23T04:02:45;16.20;99.90
2647;DHT22;1333;50.958;6.770;2023-05-23T04:05:11;16.20;99.90
2647;DHT22;1333;50.958;6.770;2023-05-23T04:07:37;16.20;99.90
2647;DHT22;1333;50.958;6.770;2023-05-23T04:10:03;16.20;99.90
2647;DHT22;1333;50.958;6.770;2023-05-23T04:12:29;16.20;99.90
2647;DHT22;1333;50.958;6.770;2023-05-23T04:14:55;16.20;99.90
2647;DHT22;1333;50.958;6.770;2023-05-23T04:17:22;16.20;99.90
2647;DHT22;1333;50.958;6.770;2023-05-23T04:19:51;16.20;99.90
2647;DHT22;1333;50.958;6.770;2023-05-23T04:22:16;16.20;99.90
2647;DHT22;1333;50.958;6.770;2023-05-23T04:24:42;16.20;99.90
2647;DHT22;1333;50.958;6.770;2023-05-23T04:27:08;16.10;99.90
2647;DHT22;1333;50.958;6.770;2023-05-23T04:29:34;16.20;99.90
2647;DHT22;1333;50.958;6.770;2023-05-23T04:32:00;16.10;99.90
2647;DHT22;1333;50.958;6.770;2023-05-23T04:34:26;16.10;99.90
2647;DHT22;1333;50.958;6.770;2023-05-23T04:36:52;16.20;99.90
2647;DHT22;1333;50.958;6.770;2023-05-23T04:39:18;16.20;99.90
2647;DHT22;1333;50.958;6.770;2023-05-23T04:41:44;16.10;99.90
2647;DHT22;1333;50.958;6.770;2023-05-23T04:44:10;16.20;99.90
2647;DHT22;1333;50.958;6.770;2023-05-23T04:46:35;16.30;99.90
2647;DHT22;1333;50.958;6.770;2023-05-23T04:49:02;16.30;99.90
2647;DHT22;1333;50.958;6.770;2023-05-23T04:51:28;16.30;99.90
2647;DHT22;1333;50.958;6.770;2023-05-23T04:53:53;16.30;99.90
2647;DHT22;1333;50.958;6.770;2023-05-23T04:56:19;16.30;99.90
2647;DHT22;1333;50.958;6.770;2023-05-23T04:58:45;16.30;99.90
2647;DHT22;1333;50.958;6.770;2023-05-23T05:01:11;16.40;99.90
2647;DHT22;1333;50.958;6.770;2023-05-23T05:03:38;16.40;99.90
2647;DHT22;1333;50.958;6.770;2023-05-23T05:06:04;16.40;99.90
2647;DHT22;1333;50.958;6.770;2023-05-23T05:08:30;16.50;99.90
2647;DHT22;1333;50.958;6.770;2023-05-23T05:10:56;16.50;99.90
2647;DHT22;1333;50.958;6.770;2023-05-23T05:13:22;16.50;99.90
2647;DHT22;1333;50.958;6.770;2023-05-23T05:15:47;16.50;99.90
2647;DHT22;1333;50.958;6.770;2023-05-23T05:18:13;16.60;99.90
2647;DHT22;1333;50.958;6.770;2023-05-23T05:20:38;16.60;99.90
2647;DHT22;1333;50.958;6.770;2023-05-23T05:23:04;16.60;99.90
2647;DHT22;1333;50.958;6.770;2023-05-23T05:25:31;16.60;99.90
2647;DHT22;1333;50.958;6.770;2023-05-23T05:28:00;16.60;99.90
2647;DHT22;1333;50.958;6.770;2023-05-23T05:30:29;16.60;99.90
2647;DHT22;1333;50.958;6.770;2023-05-23T05:32:55;16.70;99.90
2647;DHT22;1333;50.958;6.770;2023-05-23T05:35:22;16.70;99.90
2647;DHT22;1333;50.958;6.770;2023-05-23T05:37:47;16.70;99.90
2647;DHT22;1333;50.958;6.770;2023-05-23T05:40:13;16.70;99.90
2647;DHT22;1333;50.958;6.770;2023-05-23T05:42:38;16.80;99.90
2647;DHT22;1333;50.958;6.770;2023-05-23T05:45:04;16.80;99.90
2647;DHT22;1333;50.958;6.770;2023-05-23T05:47:30;16.80;99.90
2647;DHT22;1333;50.958;6.770;2023-05-23T05:49:56;16.80;99.90
2647;DHT22;1333;50.958;6.770;2023-05-23T05:52:21;16.80;99.90
2647;DHT22;1333;50.958;6.770;2023-05-23T05:54:47;16.80;99.90
2647;DHT22;1333;50.958;6.770;2023-05-23T05:57:12;16.80;99.90
2647;DHT22;1333;50.958;6.770;2023-05-23T05:59:38;16.80;99.90
2647;DHT22;1333;50.958;6.770;2023-05-23T06:02:03;16.80;99.90
2647;DHT22;1333;50.958;6.770;2023-05-23T06:04:30;16.80;99.90
2647;DHT22;1333;50.958;6.770;2023-05-23T06:06:55;16.80;99.90
2647;DHT22;1333;50.958;6.770;2023-05-23T06:09:21;16.80;99.90
2647;DHT22;1333;50.958;6.770;2023-05-23T06:11:46;16.80;99.90
2647;DHT22;1333;50.958;6.770;2023-05-23T06:14:12;16.80;99.90
2647;DHT22;1333;50.958;6.770;2023-05-23T06:16:37;16.80;99.90
2647;DHT22;1333;50.958;6.770;2023-05-23T06:19:03;16.80;99.90
2647;DHT22;1333;50.958;6.770;2023-05-23T06:21:28;16.80;99.90
2647;DHT22;1333;50.958;6.770;2023-05-23T06:23:54;16.90;99.90
2647;DHT22;1333;50.958;6.770;2023-05-23T06:26:19;16.90;99.90
2647;DHT22;1333;50.958;6.770;2023-05-23T06:28:45;17.00;99.90
2647;DHT22;1333;50.958;6.770;2023-05-23T06:31:10;17.00;99.90
2647;DHT22;1333;50.958;6.770;2023-05-23T06:33:36;17.10;99.90
2647;DHT22;1333;50.958;6.770;2023-05-23T06:36:02;17.20;99.90
2647;DHT22;1333;50.958;6.770;2023-05-23T06:38:30;17.30;99.90
2647;DHT22;1333;50.958;6.770;2023-05-23T06:40:58;17.40;99.90
2647;DHT22;1333;50.958;6.770;2023-05-23T06:43:23;17.40;99.90
2647;DHT22;1333;50.958;6.770;2023-05-23T06:45:49;17.40;99.90
2647;DHT22;1333;50.958;6.770;2023-05-23T06:48:14;17.50;99.90
2647;DHT22;1333;50.958;6.770;2023-05-23T06:50:40;17.60;99.90
2647;DHT22;1333;50.958;6.770;2023-05-23T06:53:06;17.70;99.90
2647;DHT22;1333;50.958;6.770;2023-05-23T06:55:32;17.70;99.90
2647;DHT22;1333;50.958;6.770;2023-05-23T06:58:01;17.80;99.90
2647;DHT22;1333;50.958;6.770;2023-05-23T07:00:29;17.90;99.90
2647;DHT22;1333;50.958;6.770;2023-05-23T07:02:56;18.00;99.90
2647;DHT22;1333;50.958;6.770;2023-05-23T07:05:26;18.10;99.90
2647;DHT22;1333;50.958;6.770;2023-05-23T07:07:51;18.10;99.90
2647;DHT22;1333;50.958;6.770;2023-05-23T07:10:17;18.30;99.90
2647;DHT22;1333;50.958;6.770;2023-05-23T07:12:44;18.30;99.90
2647;DHT22;1333;50.958;6.770;2023-05-23T07:15:10;18.40;99.90
2647;DHT22;1333;50.958;6.770;2023-05-23T07:17:36;18.40;99.90
2647;DHT22;1333;50.958;6.770;2023-05-23T07:20:02;18.50;99.90
2647;DHT22;1333;50.958;6.770;2023-05-23T07:22:29;18.50;99.90
2647;DHT22;1333;50.958;6.770;2023-05-23T07:24:54;18.60;99.90
2647;DHT22;1333;50.958;6.770;2023-05-23T07:27:20;18.70;99.90
2647;DHT22;1333;50.958;6.770;2023-05-23T07:29:46;18.70;99.90
2647;DHT22;1333;50.958;6.770;2023-05-23T07:32:12;18.80;99.90
2647;DHT22;1333;50.958;6.770;2023-05-23T07:34:37;18.90;99.90
2647;DHT22;1333;50.958;6.770;2023-05-23T07:37:03;19.00;99.90
2647;DHT22;1333;50.958;6.770;2023-05-23T07:39:28;19.10;99.90
2647;DHT22;1333;50.958;6.770;2023-05-23T07:41:54;19.30;99.90
2647;DHT22;1333;50.958;6.770;2023-05-23T07:44:19;19.50;99.90
2647;DHT22;1333;50.958;6.770;2023-05-23T07:46:45;19.80;99.90
2647;DHT22;1333;50.958;6.770;2023-05-23T07:49:10;20.10;99.90
2647;DHT22;1333;50.958;6.770;2023-05-23T07:51:36;20.30;99.90
2647;DHT22;1333;50.958;6.770;2023-05-23T07:54:01;20.40;99.90
2647;DHT22;1333;50.958;6.770;2023-05-23T07:56:27;20.60;99.90
2647;DHT22;1333;50.958;6.770;2023-05-23T07:58:52;20.80;99.90
2647;DHT22;1333;50.958;6.770;2023-05-23T08:01:18;20.90;99.90
2647;DHT22;1333;50.958;6.770;2023-05-23T08:03:44;20.90;99.90
2647;DHT22;1333;50.958;6.770;2023-05-23T08:06:10;21.00;99.90
2647;DHT22;1333;50.958;6.770;2023-05-23T08:08:35;21.00;99.90
2647;DHT22;1333;50.958;6.770;2023-05-23T08:11:02;21.00;99.90
2647;DHT22;1333;50.958;6.770;2023-05-23T08:13:27;21.00;99.90
2647;DHT22;1333;50.958;6.770;2023-05-23T08:15:53;21.10;99.90
2647;DHT22;1333;50.958;6.770;2023-05-23T08:18:19;21.10;99.90
2647;DHT22;1333;50.958;6.770;2023-05-23T08:20:44;20.90;99.90
2647;DHT22;1333;50.958;6.770;2023-05-23T08:23:10;20.60;99.90
2647;DHT22;1333;50.958;6.770;2023-05-23T08:25:37;20.40;99.90
2647;DHT22;1333;50.958;6.770;2023-05-23T08:28:02;20.10;99.90
2647;DHT22;1333;50.958;6.770;2023-05-23T08:30:29;19.90;99.90
2647;DHT22;1333;50.958;6.770;2023-05-23T08:32:55;19.70;99.90
2647;DHT22;1333;50.958;6.770;2023-05-23T08:35:21;19.60;99.90
2647;DHT22;1333;50.958;6.770;2023-05-23T08:37:47;19.60;99.90
2647;DHT22;1333;50.958;6.770;2023-05-23T08:40:18;19.50;99.90
2647;DHT22;1333;50.958;6.770;2023-05-23T08:42:46;19.40;99.90
2647;DHT22;1333;50.958;6.770;2023-05-23T08:45:12;19.30;99.90
2647;DHT22;1333;50.958;6.770;2023-05-23T08:47:41;19.30;99.90
2647;DHT22;1333;50.958;6.770;2023-05-23T08:50:09;19.30;99.90
2647;DHT22;1333;50.958;6.770;2023-05-23T08:52:58;19.30;99.90
2647;DHT22;1333;50.958;6.770;2023-05-23T08:55:24;19.30;99.90
2647;DHT22;1333;50.958;6.770;2023-05-23T08:57:55;19.40;99.90
2647;DHT22;1333;50.958;6.770;2023-05-23T09:00:22;19.40;99.90
2647;DHT22;1333;50.958;6.770;2023-05-23T09:02:49;19.50;99.90
2647;DHT22;1333;50.958;6.770;2023-05-23T09:05:15;19.40;99.90
2647;DHT22;1333;50.958;6.770;2023-05-23T09:07:43;19.30;99.90
2647;DHT22;1333;50.958;6.770;2023-05-23T09:10:12;19.20;99.90
2647;DHT22;1333;50.958;6.770;2023-05-23T09:12:38;19.00;99.90
2647;DHT22;1333;50.958;6.770;2023-05-23T09:15:05;18.90;99.90
2647;DHT22;1333;50.958;6.770;2023-05-23T09:17:32;18.80;99.90
2647;DHT22;1333;50.958;6.770;2023-05-23T09:19:58;18.70;99.90
2647;DHT22;1333;50.958;6.770;2023-05-23T09:22:25;18.60;99.90
2647;DHT22;1333;50.958;6.770;2023-05-23T09:24:51;18.50;99.90
2647;DHT22;1333;50.958;6.770;2023-05-23T09:27:17;18.30;99.90
2647;DHT22;1333;50.958;6.770;2023-05-23T09:29:43;18.30;99.90
2647;DHT22;1333;50.958;6.770;2023-05-23T09:32:16;18.20;99.90
2647;DHT22;1333;50.958;6.770;2023-05-23T09:34:57;18.20;99.90
2647;DHT22;1333;50.958;6.770;2023-05-23T09:37:37;18.20;99.90
2647;DHT22;1333;50.958;6.770;2023-05-23T09:40:11;18.10;99.90
2647;DHT22;1333;50.958;6.770;2023-05-23T09:42:45;18.20;99.90
2647;DHT22;1333;50.958;6.770;2023-05-23T09:45:12;18.20;99.90
2647;DHT22;1333;50.958;6.770;2023-05-23T09:47:38;18.10;99.90
2647;DHT22;1333;50.958;6.770;2023-05-23T09:50:04;18.10;99.90
2647;DHT22;1333;50.958;6.770;2023-05-23T09:52:35;18.00;99.90
2647;DHT22;1333;50.958;6.770;2023-05-23T09:55:02;17.90;99.90
2647;DHT22;1333;50.958;6.770;2023-05-23T09:57:28;17.90;99.90
2647;DHT22;1333;50.958;6.770;2023-05-23T09:59:57;18.00;99.90
2647;DHT22;1333;50.958;6.770;2023-05-23T10:02:52;18.00;99.90
2647;DHT22;1333;50.958;6.770;2023-05-23T10:05:34;18.00;99.90
2647;DHT22;1333;50.958;6.770;2023-05-23T10:08:07;18.00;99.90
2647;DHT22;1333;50.958;6.770;2023-05-23T10:10:34;18.20;99.90
2647;DHT22;1333;50.958;6.770;2023-05-23T10:13:02;18.80;99.90
2647;DHT22;1333;50.958;6.770;2023-05-23T10:15:36;20.30;99.90
2647;DHT22;1333;50.958;6.770;2023-05-23T10:18:08;23.90;99.90
2647;DHT22;1333;50.958;6.770;2023-05-23T10:20:35;28.00;99.90
2647;DHT22;1333;50.958;6.770;2023-05-23T10:23:03;31.00;92.90
2647;DHT22;1333;50.958;6.770;2023-05-23T10:25:30;31.50;71.60
2647;DHT22;1333;50.958;6.770;2023-05-23T10:27:57;31.00;61.60
2647;DHT22;1333;50.958;6.770;2023-05-23T10:30:27;30.90;59.20
2647;DHT22;1333;50.958;6.770;2023-05-23T10:32:53;30.60;58.20
2647;DHT22;1333;50.958;6.770;2023-05-23T10:35:37;30.10;57.10
2647;DHT22;1333;50.958;6.770;2023-05-23T10:38:07;29.50;56.00
2647;DHT22;1333;50.958;6.770;2023-05-23T10:45:53;29.20;57.20
2647;DHT22;1333;50.958;6.770;2023-05-23T10:48:32;29.50;55.50
2647;DHT22;1333;50.958;6.770;2023-05-23T10:53:34;28.40;53.00
2647;DHT22;1333;50.958;6.770;2023-05-23T10:56:01;27.70;53.10
2647;DHT22;1333;50.958;6.770;2023-05-23T10:58:29;27.00;53.90
2647;DHT22;1333;50.958;6.770;2023-05-23T11:01:00;26.40;55.00
2647;DHT22;1333;50.958;6.770;2023-05-23T11:06:29;25.20;57.10
2647;DHT22;1333;50.958;6.770;2023-05-23T11:09:09;24.70;58.30
2647;DHT22;1333;50.958;6.770;2023-05-23T11:11:51;24.40;60.00
2647;DHT22;1333;50.958;6.770;2023-05-23T11:14:16;24.00;61.20
2647;DHT22;1333;50.958;6.770;2023-05-23T11:16:43;23.80;62.20
2647;DHT22;1333;50.958;6.770;2023-05-23T11:19:20;23.70;62.50
2647;DHT22;1333;50.958;6.770;2023-05-23T11:21:58;24.00;64.60
2647;DHT22;1333;50.958;6.770;2023-05-23T11:27:13;26.60;66.90
2647;DHT22;1333;50.958;6.770;2023-05-23T11:29:38;27.80;61.30
2647;DHT22;1333;50.958;6.770;2023-05-23T11:32:11;28.70;58.10
2647;DHT22;1333;50.958;6.770;2023-05-23T11:34:38;30.00;56.30
2647;DHT22;1333;50.958;6.770;2023-05-23T11:37:04;31.40;52.30
2647;DHT22;1333;50.958;6.770;2023-05-23T11:39:30;33.80;51.60
2647;DHT22;1333;50.958;6.770;2023-05-23T11:42:02;36.70;47.60
2647;DHT22;1333;50.958;6.770;2023-05-23T11:44:29;38.30;41.20
2647;DHT22;1333;50.958;6.770;2023-05-23T11:47:05;38.20;37.70
2647;DHT22;1333;50.958;6.770;2023-05-23T11:49:33;37.30;36.50
2647;DHT22;1333;50.958;6.770;2023-05-23T11:52:00;36.10;36.30
2647;DHT22;1333;50.958;6.770;2023-05-23T11:54:27;34.60;36.10
2647;DHT22;1333;50.958;6.770;2023-05-23T11:56:54;34.10;38.10
2647;DHT22;1333;50.958;6.770;2023-05-23T11:59:23;34.10;38.10
2647;DHT22;1333;50.958;6.770;2023-05-23T12:01:51;33.90;38.30
2647;DHT22;1333;50.958;6.770;2023-05-23T12:04:16;33.60;38.30
2647;DHT22;1333;50.958;6.770;2023-05-23T12:06:46;32.90;38.10
2647;DHT22;1333;50.958;6.770;2023-05-23T12:09:13;32.00;38.90
2647;DHT22;1333;50.958;6.770;2023-05-23T12:11:40;30.90;39.60
2647;DHT22;1333;50.958;6.770;2023-05-23T12:14:07;29.90;40.50
2647;DHT22;1333;50.958;6.770;2023-05-23T12:16:33;28.90;41.40
2647;DHT22;1333;50.958;6.770;2023-05-23T12:19:01;28.10;42.90
2647;DHT22;1333;50.958;6.770;2023-05-23T12:21:47;27.30;43.80
2647;DHT22;1333;50.958;6.770;2023-05-23T12:27:01;26.40;46.90
2647;DHT22;1333;50.958;6.770;2023-05-23T12:29:30;26.00;47.80
2647;DHT22;1333;50.958;6.770;2023-05-23T12:31:57;25.90;48.10
2647;DHT22;1333;50.958;6.770;2023-05-23T12:34:23;25.60;48.00
2647;DHT22;1333;50.958;6.770;2023-05-23T12:36:49;25.40;48.10
2647;DHT22;1333;50.958;6.770;2023-05-23T12:39:24;25.50;48.70
2647;DHT22;1333;50.958;6.770;2023-05-23T12:41:51;25.60;48.40
2647;DHT22;1333;50.958;6.770;2023-05-23T12:44:16;25.60;48.70
2647;DHT22;1333;50.958;6.770;2023-05-23T12:46:42;25.50;48.40
2647;DHT22;1333;50.958;6.770;2023-05-23T12:49:08;25.80;48.00
2647;DHT22;1333;50.958;6.770;2023-05-23T12:51:34;26.10;48.20
2647;DHT22;1333;50.958;6.770;2023-05-23T12:54:00;26.60;48.40
2647;DHT22;1333;50.958;6.770;2023-05-23T12:56:26;26.80;47.60
2647;DHT22;1333;50.958;6.770;2023-05-23T12:58:51;26.90;47.40
2647;DHT22;1333;50.958;6.770;2023-05-23T13:01:18;27.10;47.20
2647;DHT22;1333;50.958;6.770;2023-05-23T13:03:44;27.70;47.30
2647;DHT22;1333;50.958;6.770;2023-05-23T13:06:09;29.30;47.20
2647;DHT22;1333;50.958;6.770;2023-05-23T13:08:35;31.10;44.70
2647;DHT22;1333;50.958;6.770;2023-05-23T13:11:01;32.30;43.00
2647;DHT22;1333;50.958;6.770;2023-05-23T13:13:27;33.40;41.90
2647;DHT22;1333;50.958;6.770;2023-05-23T13:15:55;33.80;39.80
2647;DHT22;1333;50.958;6.770;2023-05-23T13:18:20;33.30;38.80
2647;DHT22;1333;50.958;6.770;2023-05-23T13:20:46;32.90;38.40
2647;DHT22;1333;50.958;6.770;2023-05-23T13:23:12;32.60;38.00
2647;DHT22;1333;50.958;6.770;2023-05-23T13:25:37;32.60;38.60
2647;DHT22;1333;50.958;6.770;2023-05-23T13:28:03;32.50;37.80
2647;DHT22;1333;50.958;6.770;2023-05-23T13:30:28;32.40;38.10
2647;DHT22;1333;50.958;6.770;2023-05-23T13:32:54;32.30;38.00
2647;DHT22;1333;50.958;6.770;2023-05-23T13:35:19;32.10;37.60
2647;DHT22;1333;50.958;6.770;2023-05-23T13:37:45;31.70;37.10
2647;DHT22;1333;50.958;6.770;2023-05-23T13:40:15;31.40;37.80
2647;DHT22;1333;50.958;6.770;2023-05-23T13:42:42;30.90;37.40
2647;DHT22;1333;50.958;6.770;2023-05-23T13:45:08;30.20;37.40
2647;DHT22;1333;50.958;6.770;2023-05-23T13:47:33;29.70;38.70
2647;DHT22;1333;50.958;6.770;2023-05-23T13:50:01;29.30;39.50
2647;DHT22;1333;50.958;6.770;2023-05-23T13:52:26;29.00;39.70
2647;DHT22;1333;50.958;6.770;2023-05-23T13:54:52;28.60;39.40
2647;DHT22;1333;50.958;6.770;2023-05-23T13:57:17;28.30;39.10
2647;DHT22;1333;50.958;6.770;2023-05-23T13:59:43;28.10;39.70
2647;DHT22;1333;50.958;6.770;2023-05-23T14:02:08;28.00;40.30
2647;DHT22;1333;50.958;6.770;2023-05-23T14:04:34;27.90;40.80
2647;DHT22;1333;50.958;6.770;2023-05-23T14:07:00;27.90;40.70
2647;DHT22;1333;50.958;6.770;2023-05-23T14:09:25;28.00;41.00
2647;DHT22;1333;50.958;6.770;2023-05-23T14:11:51;27.90;40.40
2647;DHT22;1333;50.958;6.770;2023-05-23T14:14:17;27.80;40.90
2647;DHT22;1333;50.958;6.770;2023-05-23T14:16:43;27.70;40.60
2647;DHT22;1333;50.958;6.770;2023-05-23T14:19:08;27.70;41.00
2647;DHT22;1333;50.958;6.770;2023-05-23T14:21:34;27.60;40.20
2647;DHT22;1333;50.958;6.770;2023-05-23T14:24:00;27.30;40.60
2647;DHT22;1333;50.958;6.770;2023-05-23T14:26:26;27.20;40.90
2647;DHT22;1333;50.958;6.770;2023-05-23T14:28:51;27.10;41.40
2647;DHT22;1333;50.958;6.770;2023-05-23T14:31:17;27.10;41.30
2647;DHT22;1333;50.958;6.770;2023-05-23T14:33:42;27.00;41.80
2647;DHT22;1333;50.958;6.770;2023-05-23T14:36:08;26.80;41.40
2647;DHT22;1333;50.958;6.770;2023-05-23T14:38:33;26.70;41.50
2647;DHT22;1333;50.958;6.770;2023-05-23T14:40:59;26.80;42.00
2647;DHT22;1333;50.958;6.770;2023-05-23T14:43:25;26.70;41.80
2647;DHT22;1333;50.958;6.770;2023-05-23T14:45:50;26.70;41.90
2647;DHT22;1333;50.958;6.770;2023-05-23T14:48:16;26.50;41.70
2647;DHT22;1333;50.958;6.770;2023-05-23T14:50:41;26.40;42.30
2647;DHT22;1333;50.958;6.770;2023-05-23T14:53:07;26.40;42.70
2647;DHT22;1333;50.958;6.770;2023-05-23T14:55:32;26.30;42.70
2647;DHT22;1333;50.958;6.770;2023-05-23T14:57:58;26.10;42.60
2647;DHT22;1333;50.958;6.770;2023-05-23T15:00:24;25.80;43.10
2647;DHT22;1333;50.958;6.770;2023-05-23T15:02:50;25.60;43.20
2647;DHT22;1333;50.958;6.770;2023-05-23T15:05:15;25.40;43.00
2647;DHT22;1333;50.958;6.770;2023-05-23T15:07:42;25.30;43.30
2647;DHT22;1333;50.958;6.770;2023-05-23T15:10:08;25.10;43.20
2647;DHT22;1333;50.958;6.770;2023-05-23T15:12:34;24.90;43.50
2647;DHT22;1333;50.958;6.770;2023-05-23T15:14:59;24.70;43.90
2647;DHT22;1333;50.958;6.770;2023-05-23T15:17:32;24.60;44.50
2647;DHT22;1333;50.958;6.770;2023-05-23T15:19:58;24.50;44.20
2647;DHT22;1333;50.958;6.770;2023-05-23T15:22:24;24.40;45.10
2647;DHT22;1333;50.958;6.770;2023-05-23T15:24:50;24.30;44.90
2647;DHT22;1333;50.958;6.770;2023-05-23T15:27:15;24.30;45.50
2647;DHT22;1333;50.958;6.770;2023-05-23T15:29:41;24.40;44.90
2647;DHT22;1333;50.958;6.770;2023-05-23T15:32:07;24.40;44.40
2647;DHT22;1333;50.958;6.770;2023-05-23T15:34:33;24.20;43.20
2647;DHT22;1333;50.958;6.770;2023-05-23T15:36:58;24.00;43.40
2647;DHT22;1333;50.958;6.770;2023-05-23T15:39:27;23.90;44.00
2647;DHT22;1333;50.958;6.770;2023-05-23T15:41:53;23.70;44.10
2647;DHT22;1333;50.958;6.770;2023-05-23T15:44:19;23.40;44.00
2647;DHT22;1333;50.958;6.770;2023-05-23T15:46:49;23.30;43.90
2647;DHT22;1333;50.958;6.770;2023-05-23T15:49:15;23.20;44.70
2647;DHT22;1333;50.958;6.770;2023-05-23T15:51:41;23.10;44.70
2647;DHT22;1333;50.958;6.770;2023-05-23T15:54:07;23.00;45.10
2647;DHT22;1333;50.958;6.770;2023-05-23T15:56:32;23.00;45.20
2647;DHT22;1333;50.958;6.770;2023-05-23T15:58:58;23.10;45.20
2647;DHT22;1333;50.958;6.770;2023-05-23T16:01:24;23.30;45.60
2647;DHT22;1333;50.958;6.770;2023-05-23T16:03:49;23.40;45.20
2647;DHT22;1333;50.958;6.770;2023-05-23T16:06:15;23.30;44.60
2647;DHT22;1333;50.958;6.770;2023-05-23T16:08:40;23.10;44.10
2647;DHT22;1333;50.958;6.770;2023-05-23T16:11:06;22.80;44.20
2647;DHT22;1333;50.958;6.770;2023-05-23T16:13:31;22.50;44.40
2647;DHT22;1333;50.958;6.770;2023-05-23T16:15:57;22.20;44.70
2647;DHT22;1333;50.958;6.770;2023-05-23T16:18:22;22.00;45.30
2647;DHT22;1333;50.958;6.770;2023-05-23T16:20:48;21.70;45.40
2647;DHT22;1333;50.958;6.770;2023-05-23T16:23:14;21.50;45.60
2647;DHT22;1333;50.958;6.770;2023-05-23T16:25:39;21.20;46.20
2647;DHT22;1333;50.958;6.770;2023-05-23T16:28:05;21.00;46.40